sensor_id;sensor_type;location;lat;lon;timestamp;pressure;altitude;pressure_sealevel;temperature;humidity
8320;BME280;4197;42.130;24.746;2024-03-02T00:02:05;99183.09;;;7.66;100.00
8320;BME280;4197;42.130;24.746;2024-03-02T00:04:34;99170.97;;;7.59;100.00
8320;BME280;4197;42.130;24.746;2024-03-02T00:07:04;99170.47;;;7.70;100.00
8320;BME280;4197;42.130;24.746;2024-03-02T00:09:32;99170.59;;;7.61;100.00
8320;BME280;4197;42.130;24.746;2024-03-02T00:12:01;99164.22;;;7.41;100.00
8320;BME280;4197;42.130;24.746;2024-03-02T00:14:29;99167.94;;;7.49;100.00
8320;BME280;4197;42.130;24.746;2024-03-02T00:16:59;99171.19;;;7.54;100.00
8320;BME280;4197;42.130;24.746;2024-03-02T00:19:27;99167.25;;;7.52;100.00
8320;BME280;4197;42.130;24.746;2024-03-02T00:21:55;99157.56;;;7.51;100.00
8320;BME280;4197;42.130;24.746;2024-03-02T00:24:34;99165.38;;;7.28;100.00
8320;BME280;4197;42.130;24.746;2024-03-02T00:27:04;99168.97;;;7.32;100.00
8320;BME280;4197;42.130;24.746;2024-03-02T00:29:34;99162.66;;;7.28;100.00
8320;BME280;4197;42.130;24.746;2024-03-02T00:32:03;99160.09;;;7.19;100.00
8320;BME280;4197;42.130;24.746;2024-03-02T00:34:36;99164.00;;;7.34;100.00
8320;BME280;4197;42.130;24.746;2024-03-02T00:37:04;99161.31;;;7.46;100.00
8320;BME280;4197;42.130;24.746;2024-03-02T00:39:34;99159.63;;;7.54;100.00
8320;BME280;4197;42.130;24.746;2024-03-02T00:42:03;99151.75;;;7.36;100.00
8320;BME280;4197;42.130;24.746;2024-03-02T00:44:33;99150.09;;;7.32;100.00
8320;BME280;4197;42.130;24.746;2024-03-02T00:47:02;99139.50;;;7.39;100.00
8320;BME280;4197;42.130;24.746;2024-03-02T00:49:31;99143.34;;;7.38;100.00
8320;BME280;4197;42.130;24.746;2024-03-02T00:51:59;99145.44;;;7.45;100.00
8320;BME280;4197;42.130;24.746;2024-03-02T00:54:28;99142.19;;;7.39;100.00
8320;BME280;4197;42.130;24.746;2024-03-02T00:56:59;99139.84;;;7.37;100.00
8320;BME280;4197;42.130;24.746;2024-03-02T00:59:27;99132.88;;;7.36;100.00
8320;BME280;4197;42.130;24.746;2024-03-02T01:01:56;99128.94;;;7.46;100.00
8320;BME280;4197;42.130;24.746;2024-03-02T01:04:24;99133.78;;;7.28;100.00
8320;BME280;4197;42.130;24.746;2024-03-02T01:06:53;99121.75;;;7.26;100.00
8320;BME280;4197;42.130;24.746;2024-03-02T01:09:21;99114.84;;;7.12;100.00
8320;BME280;4197;42.130;24.746;2024-03-02T01:11:50;99112.13;;;7.12;100.00
8320;BME280;4197;42.130;24.746;2024-03-02T01:14:19;99114.34;;;7.35;100.00
8320;BME280;4197;42.130;24.746;2024-03-02T01:16:48;99112.53;;;7.39;100.00
8320;BME280;4197;42.130;24.746;2024-03-02T01:19:17;99112.44;;;7.35;100.00
8320;BME280;4197;42.130;24.746;2024-03-02T01:21:45;99116.50;;;7.29;100.00
8320;BME280;4197;42.130;24.746;2024-03-02T01:24:13;99112.13;;;7.12;100.00
8320;BME280;4197;42.130;24.746;2024-03-02T01:26:42;99118.44;;;7.04;100.00
8320;BME280;4197;42.130;24.746;2024-03-02T01:29:10;99113.16;;;6.96;100.00
8320;BME280;4197;42.130;24.746;2024-03-02T01:31:40;99104.50;;;7.02;100.00
8320;BME280;4197;42.130;24.746;2024-03-02T01:34:09;99107.88;;;6.99;100.00
8320;BME280;4197;42.130;24.746;2024-03-02T01:36:37;99106.06;;;7.03;100.00
8320;BME280;4197;42.130;24.746;2024-03-02T01:39:05;99106.19;;;7.07;100.00
8320;BME280;4197;42.130;24.746;2024-03-02T01:41:36;99112.88;;;7.25;100.00
8320;BME280;4197;42.130;24.746;2024-03-02T01:44:04;99109.41;;;7.25;100.00
8320;BME280;4197;42.130;24.746;2024-03-02T01:46:33;99110.53;;;7.24;100.00
8320;BME280;4197;42.130;24.746;2024-03-02T01:49:03;99096.88;;;7.04;100.00
8320;BME280;4197;42.130;24.746;2024-03-02T01:51:31;99103.03;;;7.05;100.00
8320;BME280;4197;42.130;24.746;2024-03-02T01:54:00;99107.31;;;6.93;100.00
8320;BME280;4197;42.130;24.746;2024-03-02T01:56:28;99114.03;;;7.12;100.00
8320;BME280;4197;42.130;24.746;2024-03-02T01:58:57;99114.13;;;7.28;100.00
8320;BME280;4197;42.130;24.746;2024-03-02T02:01:25;99112.34;;;7.32;100.00
8320;BME280;4197;42.130;24.746;2024-03-02T02:03:54;99109.63;;;7.32;100.00
8320;BME280;4197;42.130;24.746;2024-03-02T02:06:23;99103.69;;;7.26;100.00
8320;BME280;4197;42.130;24.746;2024-03-02T02:08:52;99104.56;;;7.30;100.00
8320;BME280;4197;42.130;24.746;2024-03-02T02:11:20;99102.22;;;7.29;100.00
8320;BME280;4197;42.130;24.746;2024-03-02T02:13:48;99103.13;;;7.21;100.00
8320;BME280;4197;42.130;24.746;2024-03-02T02:16:17;99096.06;;;7.04;100.00
8320;BME280;4197;42.130;24.746;2024-03-02T02:18:46;99102.22;;;7.17;100.00
8320;BME280;4197;42.130;24.746;2024-03-02T02:21:14;99093.81;;;7.18;100.00
8320;BME280;4197;42.130;24.746;2024-03-02T02:23:44;99095.69;;;7.18;100.00
8320;BME280;4197;42.130;24.746;2024-03-02T02:26:15;99092.81;;;6.98;100.00
8320;BME280;4197;42.130;24.746;2024-03-02T02:28:43;99095.16;;;7.00;100.00
8320;BME280;4197;42.130;24.746;2024-03-02T02:31:14;99093.13;;;7.09;100.00
8320;BME280;4197;42.130;24.746;2024-03-02T02:33:42;99102.81;;;7.10;100.00
8320;BME280;4197;42.130;24.746;2024-03-02T02:36:10;99097.19;;;7.15;100.00
8320;BME280;4197;42.130;24.746;2024-03-02T02:38:41;99093.00;;;7.30;100.00
8320;BME280;4197;42.130;24.746;2024-03-02T02:41:13;99081.44;;;7.29;100.00
8320;BME280;4197;42.130;24.746;2024-03-02T02:43:41;99090.75;;;7.20;100.00
8320;BME280;4197;42.130;24.746;2024-03-02T02:46:09;99081.88;;;7.19;100.00
8320;BME280;4197;42.130;24.746;2024-03-02T02:48:38;99089.16;;;7.31;100.00
8320;BME280;4197;42.130;24.746;2024-03-02T02:51:06;99085.38;;;7.32;100.00
8320;BME280;4197;42.130;24.746;2024-03-02T02:53:34;99089.63;;;7.33;100.00
8320;BME280;4197;42.130;24.746;2024-03-02T02:56:07;99087.25;;;7.31;100.00
8320;BME280;4197;42.130;24.746;2024-03-02T02:58:36;99094.69;;;7.22;100.00
8320;BME280;4197;42.130;24.746;2024-03-02T03:01:05;99099.31;;;7.22;100.00
8320;BME280;4197;42.130;24.746;2024-03-02T03:03:34;99093.56;;;7.23;100.00
8320;BME280;4197;42.130;24.746;2024-03-02T03:06:03;99089.94;;;7.31;100.00
8320;BME280;4197;42.130;24.746;2024-03-02T03:08:31;99091.63;;;7.36;100.00
8320;BME280;4197;42.130;24.746;2024-03-02T03:11:00;99083.78;;;7.31;100.00
8320;BME280;4197;42.130;24.746;2024-03-02T03:13:28;99086.41;;;7.15;100.00
8320;BME280;4197;42.130;24.746;2024-03-02T03:15:59;99089.19;;;7.06;100.00
8320;BME280;4197;42.130;24.746;2024-03-02T03:18:28;99099.19;;;7.30;100.00
8320;BME280;4197;42.130;24.746;2024-03-02T03:20:56;99097.72;;;7.33;100.00
8320;BME280;4197;42.130;24.746;2024-03-02T03:23:24;99088.34;;;7.43;100.00
8320;BME280;4197;42.130;24.746;2024-03-02T03:25:53;99091.94;;;7.47;100.00
8320;BME280;4197;42.130;24.746;2024-03-02T03:28:21;99083.09;;;7.34;100.00
8320;BME280;4197;42.130;24.746;2024-03-02T03:30:50;99082.91;;;7.14;100.00
8320;BME280;4197;42.130;24.746;2024-03-02T03:33:19;99077.31;;;7.07;100.00
8320;BME280;4197;42.130;24.746;2024-03-02T03:35:48;99080.09;;;7.11;100.00
8320;BME280;4197;42.130;24.746;2024-03-02T03:38:16;99083.13;;;7.22;100.00
8320;BME280;4197;42.130;24.746;2024-03-02T03:40:44;99075.13;;;7.25;100.00
8320;BME280;4197;42.130;24.746;2024-03-02T03:43:13;99077.81;;;7.37;100.00
8320;BME280;4197;42.130;24.746;2024-03-02T03:45:41;99076.44;;;7.44;100.00
8320;BME280;4197;42.130;24.746;2024-03-02T03:48:09;99078.59;;;7.38;100.00
8320;BME280;4197;42.130;24.746;2024-03-02T03:50:39;99077.91;;;7.41;100.00
8320;BME280;4197;42.130;24.746;2024-03-02T03:53:07;99077.47;;;7.39;100.00
8320;BME280;4197;42.130;24.746;2024-03-02T03:55:36;99077.22;;;7.44;100.00
8320;BME280;4197;42.130;24.746;2024-03-02T03:58:04;99070.03;;;7.48;100.00
8320;BME280;4197;42.130;24.746;2024-03-02T04:00:32;99076.63;;;7.51;100.00
8320;BME280;4197;42.130;24.746;2024-03-02T04:03:01;99083.53;;;7.48;100.00
8320;BME280;4197;42.130;24.746;2024-03-02T04:05:29;99090.38;;;7.46;100.00
8320;BME280;4197;42.130;24.746;2024-03-02T04:07:59;99089.78;;;7.52;100.00
8320;BME280;4197;42.130;24.746;2024-03-02T04:10:28;99086.09;;;7.57;100.00
8320;BME280;4197;42.130;24.746;2024-03-02T04:12:57;99096.66;;;7.50;100.00
8320;BME280;4197;42.130;24.746;2024-03-02T04:15:25;99094.75;;;7.50;100.00
8320;BME280;4197;42.130;24.746;2024-03-02T04:17:53;99095.78;;;7.46;100.00
8320;BME280;4197;42.130;24.746;2024-03-02T04:20:22;99097.25;;;7.43;100.00
8320;BME280;4197;42.130;24.746;2024-03-02T04:22:50;99104.41;;;7.51;100.00
8320;BME280;4197;42.130;24.746;2024-03-02T04:25:20;99091.16;;;7.46;100.00
8320;BME280;4197;42.130;24.746;2024-03-02T04:27:48;99102.50;;;7.52;100.00
8320;BME280;4197;42.130;24.746;2024-03-02T04:30:17;99093.50;;;7.48;100.00
8320;BME280;4197;42.130;24.746;2024-03-02T04:32:45;99101.47;;;7.56;100.00
8320;BME280;4197;42.130;24.746;2024-03-02T04:35:14;99089.69;;;7.49;100.00
8320;BME280;4197;42.130;24.746;2024-03-02T04:37:43;99095.44;;;7.47;100.00
8320;BME280;4197;42.130;24.746;2024-03-02T04:40:12;99088.03;;;7.44;100.00
8320;BME280;4197;42.130;24.746;2024-03-02T04:42:42;99089.34;;;7.50;100.00
8320;BME280;4197;42.130;24.746;2024-03-02T04:45:10;99090.03;;;7.47;100.00
8320;BME280;4197;42.130;24.746;2024-03-02T04:47:38;99083.25;;;7.53;100.00
8320;BME280;4197;42.130;24.746;2024-03-02T04:50:07;99082.94;;;7.55;100.00
8320;BME280;4197;42.130;24.746;2024-03-02T04:52:36;99085.63;;;7.55;100.00
8320;BME280;4197;42.130;24.746;2024-03-02T04:55:07;99085.72;;;7.58;100.00
8320;BME280;4197;42.130;24.746;2024-03-02T04:57:53;99089.09;;;7.55;100.00
8320;BME280;4197;42.130;24.746;2024-03-02T05:00:23;99088.66;;;7.53;100.00
8320;BME280;4197;42.130;24.746;2024-03-02T05:02:51;99085.53;;;7.51;100.00
8320;BME280;4197;42.130;24.746;2024-03-02T05:05:19;99091.25;;;7.50;100.00
8320;BME280;4197;42.130;24.746;2024-03-02T05:07:48;99102.16;;;7.53;100.00
8320;BME280;4197;42.130;24.746;2024-03-02T05:10:16;99098.13;;;7.47;100.00
8320;BME280;4197;42.130;24.746;2024-03-02T05:12:44;99100.28;;;7.42;100.00
8320;BME280;4197;42.130;24.746;2024-03-02T05:15:26;99097.44;;;7.50;100.00
8320;BME280;4197;42.130;24.746;2024-03-02T05:17:54;99112.16;;;7.53;100.00
8320;BME280;4197;42.130;24.746;2024-03-02T05:20:24;99107.00;;;7.48;100.00
8320;BME280;4197;42.130;24.746;2024-03-02T05:22:52;99108.94;;;7.35;100.00
8320;BME280;4197;42.130;24.746;2024-03-02T05:25:20;99109.41;;;7.25;100.00
8320;BME280;4197;42.130;24.746;2024-03-02T05:27:49;99121.31;;;7.36;100.00
8320;BME280;4197;42.130;24.746;2024-03-02T05:30:18;99114.94;;;7.16;100.00
8320;BME280;4197;42.130;24.746;2024-03-02T05:32:48;99120.88;;;7.09;100.00
8320;BME280;4197;42.130;24.746;2024-03-02T05:35:16;99114.81;;;7.25;100.00
8320;BME280;4197;42.130;24.746;2024-03-02T05:37:44;99121.34;;;7.24;100.00
8320;BME280;4197;42.130;24.746;2024-03-02T05:40:13;99121.53;;;7.31;100.00
8320;BME280;4197;42.130;24.746;2024-03-02T05:42:41;99128.06;;;7.30;100.00
8320;BME280;4197;42.130;24.746;2024-03-02T05:45:09;99122.44;;;7.35;100.00
8320;BME280;4197;42.130;24.746;2024-03-02T05:47:38;99124.22;;;7.43;100.00
8320;BME280;4197;42.130;24.746;2024-03-02T05:50:08;99126.78;;;7.40;100.00
8320;BME280;4197;42.130;24.746;2024-03-02T05:52:36;99123.56;;;7.22;100.00
8320;BME280;4197;42.130;24.746;2024-03-02T05:55:06;99129.41;;;7.11;100.00
8320;BME280;4197;42.130;24.746;2024-03-02T05:57:34;99129.56;;;7.15;100.00
8320;BME280;4197;42.130;24.746;2024-03-02T06:00:16;99119.19;;;7.17;100.00
8320;BME280;4197;42.130;24.746;2024-03-02T06:02:45;99117.75;;;7.07;100.00
8320;BME280;4197;42.130;24.746;2024-03-02T06:05:15;99119.31;;;7.08;100.00
8320;BME280;4197;42.130;24.746;2024-03-02T06:07:45;99114.50;;;7.02;100.00
8320;BME280;4197;42.130;24.746;2024-03-02T06:10:14;99124.50;;;7.01;100.00
8320;BME280;4197;42.130;24.746;2024-03-02T06:12:42;99120.88;;;6.97;100.00
8320;BME280;4197;42.130;24.746;2024-03-02T06:15:10;99121.56;;;7.06;100.00
8320;BME280;4197;42.130;24.746;2024-03-02T06:17:39;99125.13;;;7.23;100.00
8320;BME280;4197;42.130;24.746;2024-03-02T06:20:09;99122.78;;;7.21;100.00
8320;BME280;4197;42.130;24.746;2024-03-02T06:22:39;99126.72;;;7.11;100.00
8320;BME280;4197;42.130;24.746;2024-03-02T06:25:07;99132.69;;;7.05;100.00
8320;BME280;4197;42.130;24.746;2024-03-02T06:27:36;99137.31;;;7.04;100.00
8320;BME280;4197;42.130;24.746;2024-03-02T06:30:05;99129.63;;;7.06;100.00
8320;BME280;4197;42.130;24.746;2024-03-02T06:32:34;99133.91;;;6.95;100.00
8320;BME280;4197;42.130;24.746;2024-03-02T06:35:03;99140.09;;;7.08;100.00
8320;BME280;4197;42.130;24.746;2024-03-02T06:37:32;99139.88;;;7.01;100.00
8320;BME280;4197;42.130;24.746;2024-03-02T06:40:02;99128.63;;;7.11;100.00
8320;BME280;4197;42.130;24.746;2024-03-02T06:42:31;99135.03;;;7.19;100.00
8320;BME280;4197;42.130;24.746;2024-03-02T06:45:00;99138.19;;;7.21;100.00
8320;BME280;4197;42.130;24.746;2024-03-02T06:47:29;99139.97;;;7.17;100.00
8320;BME280;4197;42.130;24.746;2024-03-02T06:49:57;99140.78;;;7.05;100.00
8320;BME280;4197;42.130;24.746;2024-03-02T06:52:26;99148.88;;;7.05;100.00
8320;BME280;4197;42.130;24.746;2024-03-02T06:54:54;99150.78;;;7.04;100.00
8320;BME280;4197;42.130;24.746;2024-03-02T06:57:24;99157.63;;;7.02;100.00
8320;BME280;4197;42.130;24.746;2024-03-02T06:59:53;99161.78;;;7.11;100.00
8320;BME280;4197;42.130;24.746;2024-03-02T07:02:25;99158.63;;;7.09;100.00
8320;BME280;4197;42.130;24.746;2024-03-02T07:04:54;99160.41;;;7.18;100.00
8320;BME280;4197;42.130;24.746;2024-03-02T07:07:23;99162.00;;;7.19;100.00
8320;BME280;4197;42.130;24.746;2024-03-02T07:09:51;99156.63;;;7.19;100.00
8320;BME280;4197;42.130;24.746;2024-03-02T07:12:19;99153.91;;;7.31;100.00
8320;BME280;4197;42.130;24.746;2024-03-02T07:14:49;99139.06;;;7.25;100.00
8320;BME280;4197;42.130;24.746;2024-03-02T07:17:42;99139.66;;;7.18;100.00
8320;BME280;4197;42.130;24.746;2024-03-02T07:20:11;99140.88;;;7.33;100.00
8320;BME280;4197;42.130;24.746;2024-03-02T07:22:41;99147.38;;;7.44;100.00
8320;BME280;4197;42.130;24.746;2024-03-02T07:25:11;99145.81;;;7.43;100.00
8320;BME280;4197;42.130;24.746;2024-03-02T07:27:42;99151.06;;;7.52;100.00
8320;BME280;4197;42.130;24.746;2024-03-02T07:30:15;99153.66;;;7.48;100.00
8320;BME280;4197;42.130;24.746;2024-03-02T07:32:44;99161.97;;;7.55;100.00
8320;BME280;4197;42.130;24.746;2024-03-02T07:35:13;99157.56;;;7.63;100.00
8320;BME280;4197;42.130;24.746;2024-03-02T07:37:42;99163.09;;;7.54;100.00
8320;BME280;4197;42.130;24.746;2024-03-02T07:40:11;99164.19;;;7.53;100.00
8320;BME280;4197;42.130;24.746;2024-03-02T07:42:41;99162.22;;;7.38;100.00
8320;BME280;4197;42.130;24.746;2024-03-02T07:45:10;99161.09;;;7.51;100.00
8320;BME280;4197;42.130;24.746;2024-03-02T07:47:40;99154.22;;;7.54;100.00
8320;BME280;4197;42.130;24.746;2024-03-02T07:50:09;99157.78;;;7.58;100.00
8320;BME280;4197;42.130;24.746;2024-03-02T07:52:37;99147.31;;;7.69;100.00
8320;BME280;4197;42.130;24.746;2024-03-02T07:55:06;99154.28;;;7.70;100.00
8320;BME280;4197;42.130;24.746;2024-03-02T07:57:35;99158.13;;;7.56;100.00
8320;BME280;4197;42.130;24.746;2024-03-02T08:00:07;99160.94;;;7.48;100.00
8320;BME280;4197;42.130;24.746;2024-03-02T08:02:36;99173.44;;;7.52;100.00
8320;BME280;4197;42.130;24.746;2024-03-02T08:05:06;99175.25;;;7.48;100.00
8320;BME280;4197;42.130;24.746;2024-03-02T08:07:35;99172.75;;;7.55;100.00
8320;BME280;4197;42.130;24.746;2024-03-02T08:10:04;99186.69;;;7.57;100.00
8320;BME280;4197;42.130;24.746;2024-03-02T08:12:33;99178.84;;;7.52;100.00
8320;BME280;4197;42.130;24.746;2024-03-02T08:15:01;99179.28;;;7.54;100.00
8320;BME280;4197;42.130;24.746;2024-03-02T08:17:31;99178.59;;;7.45;100.00
8320;BME280;4197;42.130;24.746;2024-03-02T08:20:06;99171.84;;;7.64;100.00
8320;BME280;4197;42.130;24.746;2024-03-02T08:22:35;99164.75;;;7.59;100.00
8320;BME280;4197;42.130;24.746;2024-03-02T08:25:04;99171.94;;;7.67;100.00
8320;BME280;4197;42.130;24.746;2024-03-02T08:27:32;99162.19;;;7.63;100.00
8320;BME280;4197;42.130;24.746;2024-03-02T08:30:01;99153.13;;;7.83;100.00
8320;BME280;4197;42.130;24.746;2024-03-02T08:32:30;99164.00;;;7.87;100.00
8320;BME280;4197;42.130;24.746;2024-03-02T08:34:59;99170.78;;;7.80;100.00
8320;BME280;4197;42.130;24.746;2024-03-02T08:37:28;99161.31;;;7.87;100.00
8320;BME280;4197;42.130;24.746;2024-03-02T08:39:57;99178.47;;;7.66;100.00
8320;BME280;4197;42.130;24.746;2024-03-02T08:42:25;99164.66;;;7.55;100.00
8320;BME280;4197;42.130;24.746;2024-03-02T08:44:54;99169.13;;;7.64;100.00
8320;BME280;4197;42.130;24.746;2024-03-02T08:47:22;99165.66;;;7.63;100.00
8320;BME280;4197;42.130;24.746;2024-03-02T08:49:51;99156.06;;;7.78;100.00
8320;BME280;4197;42.130;24.746;2024-03-02T08:52:19;99171.50;;;7.65;100.00
8320;BME280;4197;42.130;24.746;2024-03-02T08:54:49;99157.13;;;7.61;100.00
8320;BME280;4197;42.130;24.746;2024-03-02T08:57:17;99160.16;;;7.59;100.00
8320;BME280;4197;42.130;24.746;2024-03-02T08:59:46;99160.25;;;7.63;100.00
8320;BME280;4197;42.130;24.746;2024-03-02T09:02:14;99155.44;;;7.56;100.00
8320;BME280;4197;42.130;24.746;2024-03-02T09:04:43;99156.78;;;7.63;100.00
8320;BME280;4197;42.130;24.746;2024-03-02T09:07:11;99168.91;;;7.56;100.00
8320;BME280;4197;42.130;24.746;2024-03-02T09:09:39;99159.72;;;7.45;100.00
8320;BME280;4197;42.130;24.746;2024-03-02T09:12:09;99159.50;;;7.50;100.00
8320;BME280;4197;42.130;24.746;2024-03-02T09:14:40;99157.75;;;7.70;100.00
8320;BME280;4197;42.130;24.746;2024-03-02T09:17:09;99161.19;;;7.95;100.00
8320;BME280;4197;42.130;24.746;2024-03-02T09:19:39;99162.75;;;7.96;100.00
8320;BME280;4197;42.130;24.746;2024-03-02T09:22:07;99179.13;;;8.03;100.00
8320;BME280;4197;42.130;24.746;2024-03-02T09:24:37;99173.78;;;8.19;100.00
8320;BME280;4197;42.130;24.746;2024-03-02T09:27:10;99176.59;;;8.23;100.00
8320;BME280;4197;42.130;24.746;2024-03-02T09:29:38;99170.00;;;8.20;100.00
8320;BME280;4197;42.130;24.746;2024-03-02T09:32:07;99168.56;;;8.11;100.00
8320;BME280;4197;42.130;24.746;2024-03-02T09:34:37;99168.84;;;7.93;100.00
8320;BME280;4197;42.130;24.746;2024-03-02T09:37:05;99175.56;;;8.40;100.00
8320;BME280;4197;42.130;24.746;2024-03-02T09:39:50;99173.75;;;8.32;100.00
8320;BME280;4197;42.130;24.746;2024-03-02T09:42:21;99168.84;;;8.21;100.00
8320;BME280;4197;42.130;24.746;2024-03-02T09:44:50;99172.03;;;8.11;100.00
8320;BME280;4197;42.130;24.746;2024-03-02T09:47:19;99168.69;;;8.02;100.00
8320;BME280;4197;42.130;24.746;2024-03-02T09:49:47;99179.25;;;8.07;100.00
8320;BME280;4197;42.130;24.746;2024-03-02T09:52:17;99178.81;;;8.33;100.00
8320;BME280;4197;42.130;24.746;2024-03-02T09:54:47;99173.84;;;8.35;100.00
8320;BME280;4197;42.130;24.746;2024-03-02T09:57:15;99177.34;;;8.36;100.00
8320;BME280;4197;42.130;24.746;2024-03-02T09:59:45;99178.09;;;8.20;100.00
8320;BME280;4197;42.130;24.746;2024-03-02T10:02:14;99176.09;;;8.33;100.00
8320;BME280;4197;42.130;24.746;2024-03-02T10:04:43;99174.97;;;8.62;100.00
8320;BME280;4197;42.130;24.746;2024-03-02T10:07:13;99173.34;;;8.74;100.00
8320;BME280;4197;42.130;24.746;2024-03-02T10:09:42;99166.72;;;8.87;100.00
8320;BME280;4197;42.130;24.746;2024-03-02T10:12:12;99165.03;;;9.14;100.00
8320;BME280;4197;42.130;24.746;2024-03-02T10:14:42;99168.50;;;9.30;100.00
8320;BME280;4197;42.130;24.746;2024-03-02T10:17:13;99166.47;;;9.43;100.00
8320;BME280;4197;42.130;24.746;2024-03-02T10:19:42;99167.69;;;9.46;100.00
8320;BME280;4197;42.130;24.746;2024-03-02T10:22:10;99161.69;;;9.56;100.00
8320;BME280;4197;42.130;24.746;2024-03-02T10:24:40;99172.16;;;9.73;100.00
8320;BME280;4197;42.130;24.746;2024-03-02T10:27:10;99169.31;;;9.86;100.00
8320;BME280;4197;42.130;24.746;2024-03-02T10:29:39;99154.75;;;9.94;100.00
8320;BME280;4197;42.130;24.746;2024-03-02T10:32:12;99156.13;;;10.03;100.00
8320;BME280;4197;42.130;24.746;2024-03-02T10:34:41;99157.53;;;10.17;100.00
8320;BME280;4197;42.130;24.746;2024-03-02T10:37:11;99155.50;;;10.30;100.00
8320;BME280;4197;42.130;24.746;2024-03-02T10:39:40;99150.69;;;10.42;100.00
8320;BME280;4197;42.130;24.746;2024-03-02T10:42:09;99146.88;;;10.47;100.00
8320;BME280;4197;42.130;24.746;2024-03-02T10:44:37;99142.75;;;10.53;100.00
8320;BME280;4197;42.130;24.746;2024-03-02T10:47:08;99131.06;;;10.72;100.00
8320;BME280;4197;42.130;24.746;2024-03-02T10:49:42;99132.19;;;10.94;100.00
8320;BME280;4197;42.130;24.746;2024-03-02T10:52:10;99135.16;;;10.85;100.00
8320;BME280;4197;42.130;24.746;2024-03-02T10:54:39;99132.81;;;11.10;100.00
8320;BME280;4197;42.130;24.746;2024-03-02T10:57:07;99132.63;;;10.96;100.00
8320;BME280;4197;42.130;24.746;2024-03-02T10:59:44;99133.66;;;10.88;100.00
8320;BME280;4197;42.130;24.746;2024-03-02T11:02:21;99128.00;;;10.74;100.00
8320;BME280;4197;42.130;24.746;2024-03-02T11:04:53;99128.91;;;10.81;100.00
8320;BME280;4197;42.130;24.746;2024-03-02T11:07:23;99130.56;;;10.89;100.00
8320;BME280;4197;42.130;24.746;2024-03-02T11:09:57;99125.72;;;10.76;100.00
8320;BME280;4197;42.130;24.746;2024-03-02T11:12:29;99120.59;;;10.70;100.00
8320;BME280;4197;42.130;24.746;2024-03-02T11:15:00;99120.03;;;10.61;100.00
8320;BME280;4197;42.130;24.746;2024-03-02T11:17:29;99119.06;;;10.73;100.00
8320;BME280;4197;42.130;24.746;2024-03-02T11:20:00;99121.38;;;10.71;100.00
8320;BME280;4197;42.130;24.746;2024-03-02T11:22:28;99114.44;;;10.74;100.00
8320;BME280;4197;42.130;24.746;2024-03-02T11:24:57;99113.28;;;10.75;100.00
8320;BME280;4197;42.130;24.746;2024-03-02T11:28:01;99111.47;;;10.82;100.00
8320;BME280;4197;42.130;24.746;2024-03-02T11:30:49;99113.41;;;10.82;100.00
8320;BME280;4197;42.130;24.746;2024-03-02T11:33:26;99116.75;;;10.75;100.00
8320;BME280;4197;42.130;24.746;2024-03-02T11:36:00;99112.25;;;10.83;100.00
8320;BME280;4197;42.130;24.746;2024-03-02T11:38:32;99108.41;;;10.61;100.00
8320;BME280;4197;42.130;24.746;2024-03-02T11:41:02;99090.25;;;10.42;100.00
8320;BME280;4197;42.130;24.746;2024-03-02T11:43:31;99092.34;;;10.75;100.00
8320;BME280;4197;42.130;24.746;2024-03-02T11:46:00;99094.31;;;10.52;100.00
8320;BME280;4197;42.130;24.746;2024-03-02T11:48:35;99098.34;;;10.61;100.00
8320;BME280;4197;42.130;24.746;2024-03-02T11:51:06;99100.97;;;10.81;100.00
8320;BME280;4197;42.130;24.746;2024-03-02T11:53:35;99096.41;;;10.85;100.00
8320;BME280;4197;42.130;24.746;2024-03-02T11:56:06;99093.16;;;11.02;100.00
8320;BME280;4197;42.130;24.746;2024-03-02T11:58:39;99084.41;;;11.12;100.00
8320;BME280;4197;42.130;24.746;2024-03-02T12:01:10;99086.81;;;11.18;100.00
8320;BME280;4197;42.130;24.746;2024-03-02T12:03:39;99077.00;;;11.09;100.00
8320;BME280;4197;42.130;24.746;2024-03-02T12:06:09;99086.22;;;11.31;100.00
8320;BME280;4197;42.130;24.746;2024-03-02T12:08:38;99087.34;;;11.30;100.00
8320;BME280;4197;42.130;24.746;2024-03-02T12:11:07;99080.94;;;11.42;100.00
8320;BME280;4197;42.130;24.746;2024-03-02T12:13:35;99081.72;;;11.43;100.00
8320;BME280;4197;42.130;24.746;2024-03-02T12:16:05;99070.81;;;11.39;100.00
8320;BME280;4197;42.130;24.746;2024-03-02T12:18:34;99077.84;;;11.44;100.00
8320;BME280;4197;42.130;24.746;2024-03-02T12:21:03;99076.59;;;11.37;100.00
8320;BME280;4197;42.130;24.746;2024-03-02T12:23:35;99084.03;;;11.44;100.00
8320;BME280;4197;42.130;24.746;2024-03-02T12:26:03;99075.50;;;11.42;100.00
8320;BME280;4197;42.130;24.746;2024-03-02T12:28:33;99065.53;;;11.20;100.00
8320;BME280;4197;42.130;24.746;2024-03-02T12:31:02;99066.81;;;11.29;100.00
8320;BME280;4197;42.130;24.746;2024-03-02T12:33:30;99064.19;;;11.36;100.00
8320;BME280;4197;42.130;24.746;2024-03-02T12:35:59;99068.16;;;11.43;100.00
8320;BME280;4197;42.130;24.746;2024-03-02T12:38:27;99068.72;;;11.59;100.00
8320;BME280;4197;42.130;24.746;2024-03-02T12:40:57;99073.47;;;11.66;100.00
8320;BME280;4197;42.130;24.746;2024-03-02T12:43:30;99070.56;;;11.51;100.00
8320;BME280;4197;42.130;24.746;2024-03-02T12:45:58;99080.97;;;11.46;100.00
8320;BME280;4197;42.130;24.746;2024-03-02T12:48:27;99078.00;;;11.28;100.00
8320;BME280;4197;42.130;24.746;2024-03-02T12:50:56;99084.59;;;11.27;100.00
8320;BME280;4197;42.130;24.746;2024-03-02T12:53:25;99083.13;;;11.33;100.00
8320;BME280;4197;42.130;24.746;2024-03-02T12:55:53;99085.53;;;11.38;100.00
8320;BME280;4197;42.130;24.746;2024-03-02T12:58:24;99081.25;;;11.37;100.00
8320;BME280;4197;42.130;24.746;2024-03-02T13:01:06;99087.69;;;11.25;100.00
8320;BME280;4197;42.130;24.746;2024-03-02T13:03:36;99090.31;;;11.18;100.00
8320;BME280;4197;42.130;24.746;2024-03-02T13:06:05;99100.69;;;11.12;100.00
8320;BME280;4197;42.130;24.746;2024-03-02T13:08:34;99097.13;;;11.08;100.00
8320;BME280;4197;42.130;24.746;2024-03-02T13:11:03;99092.34;;;10.98;100.00
8320;BME280;4197;42.130;24.746;2024-03-02T13:13:35;99095.78;;;10.95;100.00
8320;BME280;4197;42.130;24.746;2024-03-02T13:16:08;99095.72;;;10.91;100.00
8320;BME280;4197;42.130;24.746;2024-03-02T13:18:38;99098.97;;;11.01;100.00
8320;BME280;4197;42.130;24.746;2024-03-02T13:21:07;99103.50;;;10.93;100.00